sensor_id;sensor_type;location;lat;lon;timestamp;temperature;humidity
24011;DHT22;12217;50.792;4.372;2023-02-11T00:00:52;6.60;99.90
24011;DHT22;12217;50.792;4.372;2023-02-11T00:03:17;6.60;99.90
24011;DHT22;12217;50.792;4.372;2023-02-11T00:05:43;6.50;99.90
24011;DHT22;12217;50.792;4.372;2023-02-11T00:08:09;6.40;99.90
24011;DHT22;12217;50.792;4.372;2023-02-11T00:10:34;6.40;99.90
24011;DHT22;12217;50.792;4.372;2023-02-11T00:13:00;6.50;99.90
24011;DHT22;12217;50.792;4.372;2023-02-11T00:15:25;6.40;99.90
24011;DHT22;12217;50.792;4.372;2023-02-11T00:17:51;6.40;99.90
24011;DHT22;12217;50.792;4.372;2023-02-11T00:20:16;6.30;99.90
24011;DHT22;12217;50.792;4.372;2023-02-11T00:22:42;6.30;99.90
24011;DHT22;12217;50.792;4.372;2023-02-11T00:25:08;6.30;99.90
24011;DHT22;12217;50.792;4.372;2023-02-11T00:27:35;6.30;99.90
24011;DHT22;12217;50.792;4.372;2023-02-11T00:30:01;6.30;99.90
24011;DHT22;12217;50.792;4.372;2023-02-11T00:32:27;6.30;99.90
24011;DHT22;12217;50.792;4.372;2023-02-11T00:34:52;6.20;99.90
24011;DHT22;12217;50.792;4.372;2023-02-11T00:37:20;6.20;99.90
24011;DHT22;12217;50.792;4.372;2023-02-11T00:39:45;6.40;99.90
24011;DHT22;12217;50.792;4.372;2023-02-11T00:42:13;6.50;99.90
24011;DHT22;12217;50.792;4.372;2023-02-11T00:44:39;6.50;99.90
24011;DHT22;12217;50.792;4.372;2023-02-11T00:47:05;6.50;99.90
24011;DHT22;12217;50.792;4.372;2023-02-11T00:49:30;6.60;99.90
24011;DHT22;12217;50.792;4.372;2023-02-11T00:51:56;6.50;99.90
24011;DHT22;12217;50.792;4.372;2023-02-11T00:54:21;6.50;99.90
24011;DHT22;12217;50.792;4.372;2023-02-11T00:56:47;6.40;99.90
24011;DHT22;12217;50.792;4.372;2023-02-11T00:59:12;6.40;99.90
24011;DHT22;12217;50.792;4.372;2023-02-11T01:01:38;6.50;99.90
24011;DHT22;12217;50.792;4.372;2023-02-11T01:04:04;6.60;99.90
24011;DHT22;12217;50.792;4.372;2023-02-11T01:06:29;6.50;99.90
24011;DHT22;12217;50.792;4.372;2023-02-11T01:08:55;6.40;99.90
24011;DHT22;12217;50.792;4.372;2023-02-11T01:11:21;6.40;99.90
24011;DHT22;12217;50.792;4.372;2023-02-11T01:13:47;6.40;99.90
24011;DHT22;12217;50.792;4.372;2023-02-11T01:16:14;6.20;99.90
24011;DHT22;12217;50.792;4.372;2023-02-11T01:18:40;6.20;99.90
24011;DHT22;12217;50.792;4.372;2023-02-11T01:21:09;6.20;99.90
24011;DHT22;12217;50.792;4.372;2023-02-11T01:23:34;6.20;99.90
24011;DHT22;12217;50.792;4.372;2023-02-11T01:26:00;6.20;99.90
24011;DHT22;12217;50.792;4.372;2023-02-11T01:28:27;6.30;99.90
24011;DHT22;12217;50.792;4.372;2023-02-11T01:30:53;6.30;99.90
24011;DHT22;12217;50.792;4.372;2023-02-11T01:33:20;6.40;99.90
24011;DHT22;12217;50.792;4.372;2023-02-11T01:35:46;6.50;99.90
24011;DHT22;12217;50.792;4.372;2023-02-11T01:38:20;6.40;99.90
24011;DHT22;12217;50.792;4.372;2023-02-11T01:40:57;6.40;99.90
24011;DHT22;12217;50.792;4.372;2023-02-11T01:43:25;6.40;99.90
24011;DHT22;12217;50.792;4.372;2023-02-11T01:46:20;6.40;99.90
24011;DHT22;12217;50.792;4.372;2023-02-11T01:48:51;6.50;99.90
24011;DHT22;12217;50.792;4.372;2023-02-11T01:51:25;6.60;99.90
24011;DHT22;12217;50.792;4.372;2023-02-11T01:53:52;6.70;99.90
24011;DHT22;12217;50.792;4.372;2023-02-11T01:56:40;6.50;99.90
24011;DHT22;12217;50.792;4.372;2023-02-11T01:59:36;6.40;99.90
24011;DHT22;12217;50.792;4.372;2023-02-11T02:02:07;6.40;99.90
24011;DHT22;12217;50.792;4.372;2023-02-11T02:04:43;6.40;99.90
24011;DHT22;12217;50.792;4.372;2023-02-11T02:07:18;6.40;99.90
24011;DHT22;12217;50.792;4.372;2023-02-11T02:09:51;6.40;99.90
24011;DHT22;12217;50.792;4.372;2023-02-11T02:12:20;6.40;99.90
24011;DHT22;12217;50.792;4.372;2023-02-11T02:14:45;6.40;99.90
24011;DHT22;12217;50.792;4.372;2023-02-11T02:17:26;6.40;99.90
24011;DHT22;12217;50.792;4.372;2023-02-11T02:31:28;6.70;99.90
24011;DHT22;12217;50.792;4.372;2023-02-11T02:34:12;6.70;99.90
24011;DHT22;12217;50.792;4.372;2023-02-11T02:36:54;6.90;99.90
24011;DHT22;12217;50.792;4.372;2023-02-11T02:39:26;6.80;99.90
24011;DHT22;12217;50.792;4.372;2023-02-11T02:41:55;6.70;99.90
24011;DHT22;12217;50.792;4.372;2023-02-11T02:44:21;6.80;99.90
24011;DHT22;12217;50.792;4.372;2023-02-11T02:46:47;6.70;99.90
24011;DHT22;12217;50.792;4.372;2023-02-11T02:49:14;6.60;99.90
24011;DHT22;12217;50.792;4.372;2023-02-11T02:54:45;6.60;99.90
24011;DHT22;12217;50.792;4.372;2023-02-11T03:00:03;6.60;99.90
24011;DHT22;12217;50.792;4.372;2023-02-11T03:02:45;6.70;99.90
24011;DHT22;12217;50.792;4.372;2023-02-11T03:05:20;6.80;99.90
24011;DHT22;12217;50.792;4.372;2023-02-11T03:10:33;6.60;99.90
24011;DHT22;12217;50.792;4.372;2023-02-11T03:13:02;6.50;99.90
24011;DHT22;12217;50.792;4.372;2023-02-11T03:15:30;6.60;99.90
24011;DHT22;12217;50.792;4.372;2023-02-11T03:17:58;6.60;99.90
24011;DHT22;12217;50.792;4.372;2023-02-11T03:20:27;6.60;99.90
24011;DHT22;12217;50.792;4.372;2023-02-11T03:22:57;6.60;99.90
24011;DHT22;12217;50.792;4.372;2023-02-11T03:25:28;6.50;99.90
24011;DHT22;12217;50.792;4.372;2023-02-11T03:30:47;6.50;99.90
24011;DHT22;12217;50.792;4.372;2023-02-11T03:33:28;6.60;99.90
24011;DHT22;12217;50.792;4.372;2023-02-11T03:35:59;6.70;99.90
24011;DHT22;12217;50.792;4.372;2023-02-11T03:38:35;6.60;99.90
24011;DHT22;12217;50.792;4.372;2023-02-11T03:41:04;6.50;99.90
24011;DHT22;12217;50.792;4.372;2023-02-11T03:43:37;6.50;99.90
24011;DHT22;12217;50.792;4.372;2023-02-11T03:46:05;6.60;99.90
24011;DHT22;12217;50.792;4.372;2023-02-11T03:48:34;6.70;99.90
24011;DHT22;12217;50.792;4.372;2023-02-11T03:51:04;6.70;99.90
24011;DHT22;12217;50.792;4.372;2023-02-11T03:53:30;6.70;99.90
24011;DHT22;12217;50.792;4.372;2023-02-11T03:55:57;6.70;99.90
24011;DHT22;12217;50.792;4.372;2023-02-11T03:58:24;6.70;99.90
24011;DHT22;12217;50.792;4.372;2023-02-11T04:00:50;6.80;99.90
24011;DHT22;12217;50.792;4.372;2023-02-11T04:03:16;6.90;99.90
24011;DHT22;12217;50.792;4.372;2023-02-11T04:05:41;7.10;99.90
24011;DHT22;12217;50.792;4.372;2023-02-11T04:08:07;7.10;99.90
24011;DHT22;12217;50.792;4.372;2023-02-11T04:10:33;7.00;99.90
24011;DHT22;12217;50.792;4.372;2023-02-11T04:12:59;7.20;99.90
24011;DHT22;12217;50.792;4.372;2023-02-11T04:15:26;7.20;99.90
24011;DHT22;12217;50.792;4.372;2023-02-11T04:17:51;7.10;99.90
24011;DHT22;12217;50.792;4.372;2023-02-11T04:20:17;7.00;99.90
24011;DHT22;12217;50.792;4.372;2023-02-11T04:22:43;7.10;99.90
24011;DHT22;12217;50.792;4.372;2023-02-11T04:25:08;7.10;99.90
24011;DHT22;12217;50.792;4.372;2023-02-11T04:27:34;6.90;99.90
24011;DHT22;12217;50.792;4.372;2023-02-11T04:30:00;7.00;99.90
24011;DHT22;12217;50.792;4.372;2023-02-11T04:32:26;7.10;99.90
24011;DHT22;12217;50.792;4.372;2023-02-11T04:34:51;7.10;99.90
24011;DHT22;12217;50.792;4.372;2023-02-11T04:37:18;7.00;99.90
24011;DHT22;12217;50.792;4.372;2023-02-11T04:39:44;7.10;99.90
24011;DHT22;12217;50.792;4.372;2023-02-11T04:42:09;7.10;99.90
24011;DHT22;12217;50.792;4.372;2023-02-11T04:44:35;7.20;99.90
24011;DHT22;12217;50.792;4.372;2023-02-11T04:47:00;7.20;99.90
24011;DHT22;12217;50.792;4.372;2023-02-11T04:49:26;7.30;99.90
24011;DHT22;12217;50.792;4.372;2023-02-11T04:51:52;7.40;99.90
24011;DHT22;12217;50.792;4.372;2023-02-11T04:54:17;7.40;99.90
24011;DHT22;12217;50.792;4.372;2023-02-11T04:56:43;7.30;99.90
24011;DHT22;12217;50.792;4.372;2023-02-11T04:59:09;7.50;99.90
24011;DHT22;12217;50.792;4.372;2023-02-11T05:01:35;7.50;99.90
24011;DHT22;12217;50.792;4.372;2023-02-11T05:04:01;7.30;99.90
24011;DHT22;12217;50.792;4.372;2023-02-11T05:06:26;7.30;99.90
24011;DHT22;12217;50.792;4.372;2023-02-11T05:08:52;7.30;99.90
24011;DHT22;12217;50.792;4.372;2023-02-11T05:11:20;7.20;99.90
24011;DHT22;12217;50.792;4.372;2023-02-11T05:13:47;7.20;99.90
24011;DHT22;12217;50.792;4.372;2023-02-11T05:16:13;7.10;99.90
24011;DHT22;12217;50.792;4.372;2023-02-11T05:18:40;7.10;99.90
24011;DHT22;12217;50.792;4.372;2023-02-11T05:21:08;7.10;99.90
24011;DHT22;12217;50.792;4.372;2023-02-11T05:23:34;7.10;99.90
24011;DHT22;12217;50.792;4.372;2023-02-11T05:26:00;7.10;99.90
24011;DHT22;12217;50.792;4.372;2023-02-11T05:28:27;7.30;99.90
24011;DHT22;12217;50.792;4.372;2023-02-11T05:30:52;7.30;99.90
24011;DHT22;12217;50.792;4.372;2023-02-11T05:33:18;7.20;99.90
24011;DHT22;12217;50.792;4.372;2023-02-11T05:35:43;7.10;99.90
24011;DHT22;12217;50.792;4.372;2023-02-11T05:38:09;7.10;99.90
24011;DHT22;12217;50.792;4.372;2023-02-11T05:40:35;7.00;99.90
24011;DHT22;12217;50.792;4.372;2023-02-11T05:43:00;7.00;99.90
24011;DHT22;12217;50.792;4.372;2023-02-11T05:45:26;6.90;99.90
24011;DHT22;12217;50.792;4.372;2023-02-11T05:47:52;6.90;99.90
24011;DHT22;12217;50.792;4.372;2023-02-11T05:50:17;6.80;99.90
24011;DHT22;12217;50.792;4.372;2023-02-11T05:52:43;6.90;99.90
24011;DHT22;12217;50.792;4.372;2023-02-11T05:55:08;6.80;99.90
24011;DHT22;12217;50.792;4.372;2023-02-11T05:57:34;6.80;99.90
24011;DHT22;12217;50.792;4.372;2023-02-11T06:00:00;6.70;99.90
24011;DHT22;12217;50.792;4.372;2023-02-11T06:02:25;6.80;99.90
24011;DHT22;12217;50.792;4.372;2023-02-11T06:04:51;6.90;99.90
24011;DHT22;12217;50.792;4.372;2023-02-11T06:07:17;6.90;99.90
24011;DHT22;12217;50.792;4.372;2023-02-11T06:09:44;6.90;99.90
24011;DHT22;12217;50.792;4.372;2023-02-11T06:12:09;6.80;99.90
24011;DHT22;12217;50.792;4.372;2023-02-11T06:14:35;6.90;99.90
24011;DHT22;12217;50.792;4.372;2023-02-11T06:17:01;7.00;99.90
24011;DHT22;12217;50.792;4.372;2023-02-11T06:19:26;6.90;99.90
24011;DHT22;12217;50.792;4.372;2023-02-11T06:21:52;7.00;99.90
24011;DHT22;12217;50.792;4.372;2023-02-11T06:24:18;7.10;99.90
24011;DHT22;12217;50.792;4.372;2023-02-11T06:26:43;7.10;99.90
24011;DHT22;12217;50.792;4.372;2023-02-11T06:29:09;7.10;99.90
24011;DHT22;12217;50.792;4.372;2023-02-11T06:31:36;7.00;99.90
24011;DHT22;12217;50.792;4.372;2023-02-11T06:34:03;7.00;99.90
24011;DHT22;12217;50.792;4.372;2023-02-11T06:36:29;7.10;99.90
24011;DHT22;12217;50.792;4.372;2023-02-11T06:38:55;7.10;99.90
24011;DHT22;12217;50.792;4.372;2023-02-11T06:41:21;7.10;99.90
24011;DHT22;12217;50.792;4.372;2023-02-11T06:43:47;7.00;99.90
24011;DHT22;12217;50.792;4.372;2023-02-11T06:46:13;7.00;99.90
24011;DHT22;12217;50.792;4.372;2023-02-11T06:48:38;7.00;99.90
24011;DHT22;12217;50.792;4.372;2023-02-11T06:51:06;7.10;99.90
24011;DHT22;12217;50.792;4.372;2023-02-11T06:53:35;7.10;99.90
24011;DHT22;12217;50.792;4.372;2023-02-11T06:56:05;7.10;99.90
24011;DHT22;12217;50.792;4.372;2023-02-11T06:58:31;7.10;99.90
24011;DHT22;12217;50.792;4.372;2023-02-11T07:00:57;7.20;99.90
24011;DHT22;12217;50.792;4.372;2023-02-11T07:03:23;7.10;99.90
24011;DHT22;12217;50.792;4.372;2023-02-11T07:05:48;7.10;99.90
24011;DHT22;12217;50.792;4.372;2023-02-11T07:08:14;7.30;99.90
24011;DHT22;12217;50.792;4.372;2023-02-11T07:10:39;7.10;99.90
24011;DHT22;12217;50.792;4.372;2023-02-11T07:13:05;7.00;99.90
24011;DHT22;12217;50.792;4.372;2023-02-11T07:15:31;6.90;99.90
24011;DHT22;12217;50.792;4.372;2023-02-11T07:17:56;6.90;99.90
24011;DHT22;12217;50.792;4.372;2023-02-11T07:20:22;7.00;99.90
24011;DHT22;12217;50.792;4.372;2023-02-11T07:22:48;6.90;99.90
24011;DHT22;12217;50.792;4.372;2023-02-11T07:25:13;6.80;99.90
24011;DHT22;12217;50.792;4.372;2023-02-11T07:27:39;6.90;99.90
24011;DHT22;12217;50.792;4.372;2023-02-11T07:30:05;6.90;99.90
24011;DHT22;12217;50.792;4.372;2023-02-11T07:32:30;6.90;99.90
24011;DHT22;12217;50.792;4.372;2023-02-11T07:34:56;6.90;99.90
24011;DHT22;12217;50.792;4.372;2023-02-11T07:37:22;7.00;99.90
24011;DHT22;12217;50.792;4.372;2023-02-11T07:39:47;7.00;99.90
24011;DHT22;12217;50.792;4.372;2023-02-11T07:42:13;7.10;99.90
24011;DHT22;12217;50.792;4.372;2023-02-11T07:44:39;7.20;99.90
24011;DHT22;12217;50.792;4.372;2023-02-11T07:47:04;7.30;99.90
24011;DHT22;12217;50.792;4.372;2023-02-11T07:49:30;7.30;99.90
24011;DHT22;12217;50.792;4.372;2023-02-11T07:51:55;7.30;99.90
24011;DHT22;12217;50.792;4.372;2023-02-11T07:54:21;7.40;99.90
24011;DHT22;12217;50.792;4.372;2023-02-11T07:56:47;7.40;99.90
24011;DHT22;12217;50.792;4.372;2023-02-11T07:59:12;7.50;99.90
24011;DHT22;12217;50.792;4.372;2023-02-11T08:01:38;7.50;99.90
24011;DHT22;12217;50.792;4.372;2023-02-11T08:04:04;7.50;99.90
24011;DHT22;12217;50.792;4.372;2023-02-11T08:06:31;7.50;99.90
24011;DHT22;12217;50.792;4.372;2023-02-11T08:08:57;7.60;99.90
24011;DHT22;12217;50.792;4.372;2023-02-11T08:11:25;7.80;99.90
24011;DHT22;12217;50.792;4.372;2023-02-11T08:13:51;7.80;99.90
24011;DHT22;12217;50.792;4.372;2023-02-11T08:16:21;7.80;99.90
24011;DHT22;12217;50.792;4.372;2023-02-11T08:18:48;7.60;99.90
24011;DHT22;12217;50.792;4.372;2023-02-11T08:21:14;7.40;99.90
24011;DHT22;12217;50.792;4.372;2023-02-11T08:23:41;7.30;99.90
24011;DHT22;12217;50.792;4.372;2023-02-11T08:26:10;7.30;99.90
24011;DHT22;12217;50.792;4.372;2023-02-11T08:28:37;7.30;99.90
24011;DHT22;12217;50.792;4.372;2023-02-11T08:31:11;7.30;99.90
24011;DHT22;12217;50.792;4.372;2023-02-11T08:36:06;8.50;99.90
24011;DHT22;12217;50.792;4.372;2023-02-11T08:38:32;10.90;99.90
24011;DHT22;12217;50.792;4.372;2023-02-11T08:40:59;12.70;99.90
24011;DHT22;12217;50.792;4.372;2023-02-11T08:43:24;14.00;99.90
24011;DHT22;12217;50.792;4.372;2023-02-11T08:45:50;15.00;99.90
24011;DHT22;12217;50.792;4.372;2023-02-11T08:48:15;15.80;99.90
24011;DHT22;12217;50.792;4.372;2023-02-11T08:50:41;16.40;99.90
24011;DHT22;12217;50.792;4.372;2023-02-11T08:53:07;16.90;99.90
24011;DHT22;12217;50.792;4.372;2023-02-11T08:55:32;17.40;99.90
24011;DHT22;12217;50.792;4.372;2023-02-11T08:57:58;17.80;99.90
24011;DHT22;12217;50.792;4.372;2023-02-11T09:00:23;18.10;99.90
24011;DHT22;12217;50.792;4.372;2023-02-11T09:02:49;18.40;99.90
24011;DHT22;12217;50.792;4.372;2023-02-11T09:05:15;18.70;99.90
24011;DHT22;12217;50.792;4.372;2023-02-11T09:07:40;18.90;99.90
24011;DHT22;12217;50.792;4.372;2023-02-11T09:10:07;19.30;99.90
24011;DHT22;12217;50.792;4.372;2023-02-11T09:12:33;19.70;99.90
24011;DHT22;12217;50.792;4.372;2023-02-11T09:14:58;19.80;99.90
24011;DHT22;12217;50.792;4.372;2023-02-11T09:17:24;19.90;99.90
24011;DHT22;12217;50.792;4.372;2023-02-11T09:19:49;20.00;99.90
24011;DHT22;12217;50.792;4.372;2023-02-11T09:22:15;20.10;99.90
24011;DHT22;12217;50.792;4.372;2023-02-11T09:24:41;20.10;99.90
24011;DHT22;12217;50.792;4.372;2023-02-11T09:27:06;20.20;99.90
24011;DHT22;12217;50.792;4.372;2023-02-11T09:29:32;20.20;99.90
24011;DHT22;12217;50.792;4.372;2023-02-11T09:31:58;20.30;99.90
24011;DHT22;12217;50.792;4.372;2023-02-11T09:34:23;20.30;99.90
24011;DHT22;12217;50.792;4.372;2023-02-11T09:36:49;20.30;99.90
24011;DHT22;12217;50.792;4.372;2023-02-11T09:39:16;20.30;99.90
24011;DHT22;12217;50.792;4.372;2023-02-11T09:45:20;20.40;99.90
24011;DHT22;12217;50.792;4.372;2023-02-11T09:48:09;20.40;99.90
24011;DHT22;12217;50.792;4.372;2023-02-11T09:50:43;20.40;99.90
24011;DHT22;12217;50.792;4.372;2023-02-11T09:53:20;20.40;99.90
24011;DHT22;12217;50.792;4.372;2023-02-11T09:56:09;20.40;99.90
24011;DHT22;12217;50.792;4.372;2023-02-11T09:58:38;20.40;99.90
24011;DHT22;12217;50.792;4.372;2023-02-11T10:01:26;20.40;99.90
24011;DHT22;12217;50.792;4.372;2023-02-11T10:07:16;20.50;99.90
24011;DHT22;12217;50.792;4.372;2023-02-11T10:10:06;20.50;99.90
24011;DHT22;12217;50.792;4.372;2023-02-11T10:23:35;20.40;99.90
24011;DHT22;12217;50.792;4.372;2023-02-11T10:26:01;20.20;99.90
24011;DHT22;12217;50.792;4.372;2023-02-11T10:28:35;20.00;99.90
24011;DHT22;12217;50.792;4.372;2023-02-11T10:31:10;19.50;99.90
24011;DHT22;12217;50.792;4.372;2023-02-11T10:34:08;19.50;99.90
24011;DHT22;12217;50.792;4.372;2023-02-11T10:36:36;19.70;99.90
24011;DHT22;12217;50.792;4.372;2023-02-11T10:41:40;19.90;99.90
24011;DHT22;12217;50.792;4.372;2023-02-11T10:44:07;20.00;99.90
24011;DHT22;12217;50.792;4.372;2023-02-11T10:46:35;20.10;99.90
24011;DHT22;12217;50.792;4.372;2023-02-11T10:49:02;20.20;99.90
24011;DHT22;12217;50.792;4.372;2023-02-11T10:51:32;20.30;99.90
24011;DHT22;12217;50.792;4.372;2023-02-11T10:56:36;20.40;99.90
24011;DHT22;12217;50.792;4.372;2023-02-11T11:01:58;20.50;99.90
24011;DHT22;12217;50.792;4.372;2023-02-11T11:04:42;20.50;99.90
24011;DHT22;12217;50.792;4.372;2023-02-11T11:07:19;20.60;99.90
24011;DHT22;12217;50.792;4.372;2023-02-11T11:10:07;20.60;99.90
24011;DHT22;12217;50.792;4.372;2023-02-11T11:12:49;20.60;99.90
24011;DHT22;12217;50.792;4.372;2023-02-11T11:15:29;20.70;99.90
24011;DHT22;12217;50.792;4.372;2023-02-11T11:18:14;20.70;99.90
24011;DHT22;12217;50.792;4.372;2023-02-11T11:20:54;20.70;99.90
24011;DHT22;12217;50.792;4.372;2023-02-11T11:23:22;20.80;99.90
24011;DHT22;12217;50.792;4.372;2023-02-11T11:26:05;20.80;99.90
24011;DHT22;12217;50.792;4.372;2023-02-11T11:31:04;20.80;99.90
24011;DHT22;12217;50.792;4.372;2023-02-11T11:33:33;20.80;99.90
24011;DHT22;12217;50.792;4.372;2023-02-11T11:38:32;20.90;99.90
24011;DHT22;12217;50.792;4.372;2023-02-11T11:41:29;20.90;99.90
24011;DHT22;12217;50.792;4.372;2023-02-11T11:44:25;21.00;99.90
24011;DHT22;12217;50.792;4.372;2023-02-11T11:52:43;21.10;99.90
24011;DHT22;12217;50.792;4.372;2023-02-11T11:55:21;21.10;99.90
24011;DHT22;12217;50.792;4.372;2023-02-11T11:57:48;21.10;99.90
24011;DHT22;12217;50.792;4.372;2023-02-11T12:00:38;21.10;99.90
24011;DHT22;12217;50.792;4.372;2023-02-11T12:19:37;21.10;99.80
24011;DHT22;12217;50.792;4.372;2023-02-11T12:22:25;21.20;99.80
24011;DHT22;12217;50.792;4.372;2023-02-11T12:30:24;21.30;99.70
24011;DHT22;12217;50.792;4.372;2023-02-11T12:36:14;21.40;99.80
24011;DHT22;12217;50.792;4.372;2023-02-11T12:44:24;21.40;99.60
24011;DHT22;12217;50.792;4.372;2023-02-11T12:47:05;21.40;99.60
24011;DHT22;12217;50.792;4.372;2023-02-11T12:49:50;21.40;99.60
24011;DHT22;12217;50.792;4.372;2023-02-11T12:55:22;21.30;99.50
24011;DHT22;12217;50.792;4.372;2023-02-11T12:57:49;21.30;99.50
24011;DHT22;12217;50.792;4.372;2023-02-11T13:00:22;21.30;99.40
24011;DHT22;12217;50.792;4.372;2023-02-11T13:05:48;21.40;99.40
24011;DHT22;12217;50.792;4.372;2023-02-11T13:08:24;21.40;99.40
24011;DHT22;12217;50.792;4.372;2023-02-11T13:10:54;21.40;99.20
24011;DHT22;12217;50.792;4.372;2023-02-11T13:13:36;21.40;99.20
24011;DHT22;12217;50.792;4.372;2023-02-11T13:19:14;21.50;99.10
24011;DHT22;12217;50.792;4.372;2023-02-11T13:22:16;21.60;99.10
24011;DHT22;12217;50.792;4.372;2023-02-11T13:24:57;21.50;99.00
24011;DHT22;12217;50.792;4.372;2023-02-11T13:35:34;21.50;98.80
24011;DHT22;12217;50.792;4.372;2023-02-11T13:38:02;21.50;98.90
24011;DHT22;12217;50.792;4.372;2023-02-11T13:40:36;21.50;98.80
24011;DHT22;12217;50.792;4.372;2023-02-11T13:43:05;21.50;98.90
24011;DHT22;12217;50.792;4.372;2023-02-11T13:45:45;21.50;99.30
24011;DHT22;12217;50.792;4.372;2023-02-11T13:48:26;21.50;99.20
24011;DHT22;12217;50.792;4.372;2023-02-11T13:51:09;21.50;99.30
24011;DHT22;12217;50.792;4.372;2023-02-11T13:53:50;21.50;99.30
24011;DHT22;12217;50.792;4.372;2023-02-11T13:58:56;21.40;99.40
24011;DHT22;12217;50.792;4.372;2023-02-11T14:04:23;21.40;99.40
24011;DHT22;12217;50.792;4.372;2023-02-11T14:07:28;21.30;99.40
24011;DHT22;12217;50.792;4.372;2023-02-11T14:13:28;21.30;99.50
24011;DHT22;12217;50.792;4.372;2023-02-11T14:18:37;21.20;99.60
24011;DHT22;12217;50.792;4.372;2023-02-11T14:23:51;21.20;99.70
24011;DHT22;12217;50.792;4.372;2023-02-11T14:40:57;21.50;99.20
24011;DHT22;12217;50.792;4.372;2023-02-11T14:42:50;21.50;99.20
24011;DHT22;12217;50.792;4.372;2023-02-11T14:45:22;21.50;99.10
24011;DHT22;12217;50.792;4.372;2023-02-11T14:48:13;21.50;99.00
24011;DHT22;12217;50.792;4.372;2023-02-11T14:50:47;21.50;99.00
24011;DHT22;12217;50.792;4.372;2023-02-11T14:53:20;21.60;99.30
24011;DHT22;12217;50.792;4.372;2023-02-11T14:55:48;21.50;98.90
24011;DHT22;12217;50.792;4.372;2023-02-11T14:58:23;21.60;99.00
24011;DHT22;12217;50.792;4.372;2023-02-11T15:03:40;21.50;98.90
24011;DHT22;12217;50.792;4.372;2023-02-11T15:06:19;21.50;98.90
24011;DHT22;12217;50.792;4.372;2023-02-11T15:08:54;21.50;99.10
24011;DHT22;12217;50.792;4.372;2023-02-11T15:11:23;21.50;99.30
24011;DHT22;12217;50.792;4.372;2023-02-11T15:13:50;21.50;99.80
24011;DHT22;12217;50.792;4.372;2023-02-11T15:16:19;21.50;99.60
24011;DHT22;12217;50.792;4.372;2023-02-11T15:19:00;21.50;99.60
24011;DHT22;12217;50.792;4.372;2023-02-11T15:21:29;21.50;99.80
24011;DHT22;12217;50.792;4.372;2023-02-11T15:26:44;21.50;99.90
24011;DHT22;12217;50.792;4.372;2023-02-11T15:29:16;21.50;99.90
24011;DHT22;12217;50.792;4.372;2023-02-11T15:31:41;21.50;99.90
24011;DHT22;12217;50.792;4.372;2023-02-11T15:34:07;21.40;99.90
24011;DHT22;12217;50.792;4.372;2023-02-11T15:36:33;21.40;99.90
24011;DHT22;12217;50.792;4.372;2023-02-11T15:39:36;21.40;99.90
24011;DHT22;12217;50.792;4.372;2023-02-11T15:42:25;21.40;99.90
24011;DHT22;12217;50.792;4.372;2023-02-11T15:47:46;21.40;99.90
24011;DHT22;12217;50.792;4.372;2023-02-11T15:50:24;21.40;99.90
24011;DHT22;12217;50.792;4.372;2023-02-11T15:52:51;21.40;99.90
24011;DHT22;12217;50.792;4.372;2023-02-11T15:55:19;21.40;99.90
24011;DHT22;12217;50.792;4.372;2023-02-11T15:57:48;21.30;99.90
24011;DHT22;12217;50.792;4.372;2023-02-11T16:00:17;21.30;99.90
24011;DHT22;12217;50.792;4.372;2023-02-11T16:02:45;21.30;99.90
24011;DHT22;12217;50.792;4.372;2023-02-11T16:05:36;21.30;99.90
24011;DHT22;12217;50.792;4.372;2023-02-11T16:08:31;21.30;99.90
24011;DHT22;12217;50.792;4.372;2023-02-11T16:11:02;21.30;99.90
24011;DHT22;12217;50.792;4.372;2023-02-11T16:13:43;21.30;99.80
24011;DHT22;12217;50.792;4.372;2023-02-11T16:16:21;21.30;99.90
24011;DHT22;12217;50.792;4.372;2023-02-11T16:18:52;21.30;99.80
24011;DHT22;12217;50.792;4.372;2023-02-11T16:21:26;21.30;99.80
24011;DHT22;12217;50.792;4.372;2023-02-11T16:23:55;21.20;99.70
24011;DHT22;12217;50.792;4.372;2023-02-11T16:26:44;21.20;99.70
24011;DHT22;12217;50.792;4.372;2023-02-11T16:29:14;21.20;99.70
24011;DHT22;12217;50.792;4.372;2023-02-11T16:31:43;21.30;99.70
24011;DHT22;12217;50.792;4.372;2023-02-11T16:36:41;21.20;99.60
24011;DHT22;12217;50.792;4.372;2023-02-11T16:39:06;21.20;99.60
24011;DHT22;12217;50.792;4.372;2023-02-11T16:41:33;21.20;99.60
24011;DHT22;12217;50.792;4.372;2023-02-11T16:43:59;21.20;99.60
24011;DHT22;12217;50.792;4.372;2023-02-11T16:46:25;21.20;99.50
24011;DHT22;12217;50.792;4.372;2023-02-11T16:48:53;21.20;99.50
24011;DHT22;12217;50.792;4.372;2023-02-11T16:51:19;21.20;99.50
24011;DHT22;12217;50.792;4.372;2023-02-11T16:53:45;21.20;99.40
24011;DHT22;12217;50.792;4.372;2023-02-11T16:56:14;21.20;99.40
24011;DHT22;12217;50.792;4.372;2023-02-11T16:58:41;21.20;99.40
24011;DHT22;12217;50.792;4.372;2023-02-11T17:01:07;21.20;99.40
24011;DHT22;12217;50.792;4.372;2023-02-11T17:03:33;21.20;99.40
24011;DHT22;12217;50.792;4.372;2023-02-11T17:06:07;21.20;99.30
24011;DHT22;12217;50.792;4.372;2023-02-11T17:08:34;21.20;99.30
24011;DHT22;12217;50.792;4.372;2023-02-11T17:11:00;21.20;99.30
24011;DHT22;12217;50.792;4.372;2023-02-11T17:13:26;21.20;99.30
24011;DHT22;12217;50.792;4.372;2023-02-11T17:15:52;21.20;99.30
24011;DHT22;12217;50.792;4.372;2023-02-11T17:18:18;21.20;99.20
24011;DHT22;12217;50.792;4.372;2023-02-11T17:20:44;21.20;99.20
24011;DHT22;12217;50.792;4.372;2023-02-11T17:23:10;21.20;99.40
24011;DHT22;12217;50.792;4.372;2023-02-11T17:25:35;21.20;99.60
24011;DHT22;12217;50.792;4.372;2023-02-11T17:28:06;21.20;99.70
24011;DHT22;12217;50.792;4.372;2023-02-11T17:30:32;21.20;99.70
24011;DHT22;12217;50.792;4.372;2023-02-11T17:32:57;21.20;99.70
24011;DHT22;12217;50.792;4.372;2023-02-11T17:35:23;21.20;99.70
24011;DHT22;12217;50.792;4.372;2023-02-11T17:37:49;21.20;99.80
24011;DHT22;12217;50.792;4.372;2023-02-11T17:40:15;21.20;99.80
24011;DHT22;12217;50.792;4.372;2023-02-11T17:42:40;21.20;99.80
24011;DHT22;12217;50.792;4.372;2023-02-11T17:45:07;21.30;99.70
24011;DHT22;12217;50.792;4.372;2023-02-11T17:47:33;21.30;99.70
24011;DHT22;12217;50.792;4.372;2023-02-11T17:49:58;21.30;99.60
24011;DHT22;12217;50.792;4.372;2023-02-11T17:52:24;21.30;99.60
24011;DHT22;12217;50.792;4.372;2023-02-11T17:54:52;21.30;99.70
24011;DHT22;12217;50.792;4.372;2023-02-11T17:57:18;21.30;99.80
24011;DHT22;12217;50.792;4.372;2023-02-11T17:59:44;21.30;99.90
24011;DHT22;12217;50.792;4.372;2023-02-11T18:02:11;21.30;99.90
24011;DHT22;12217;50.792;4.372;2023-02-11T18:04:37;21.30;99.80
24011;DHT22;12217;50.792;4.372;2023-02-11T18:07:03;21.40;99.80
24011;DHT22;12217;50.792;4.372;2023-02-11T18:09:29;21.40;99.70
24011;DHT22;12217;50.792;4.372;2023-02-11T18:11:55;21.40;99.60
24011;DHT22;12217;50.792;4.372;2023-02-11T18:14:22;21.40;99.60
24011;DHT22;12217;50.792;4.372;2023-02-11T18:16:51;21.40;99.70
24011;DHT22;12217;50.792;4.372;2023-02-11T18:19:18;21.40;99.90
24011;DHT22;12217;50.792;4.372;2023-02-11T18:21:43;21.40;99.90
24011;DHT22;12217;50.792;4.372;2023-02-11T18:24:09;21.30;99.90